Terminal Aerodrome Forecast
Issued by NWS

Home | Current Version | Previous Version | Text Only | Print | Product List | Glossary On
Versions: 1 2 3 4 5 6 7 8 9 10 11 12
000
FTUS43 KGRB 251700
TAFAUW
TAF
KAUW 251720Z 2518/2618 07010G19KT P6SM SCT070
     FM252300 06005KT P6SM SKC
     FM260800 01004KT P6SM SKC
     FM261600 01009G15KT P6SM SKC=

USA.gov is the U.S. government's official web portal to all federal, state and local government web resources and services.